sensor_id;sensor_type;location;lat;lon;timestamp;pressure;altitude;pressure_sealevel;temperature;humidity
6514;BME280;3290;47.716;9.070;2023-05-03T00:00:56;97603.91;;;10.44;100.00
6514;BME280;3290;47.716;9.070;2023-05-03T00:03:24;97599.72;;;10.56;100.00
6514;BME280;3290;47.716;9.070;2023-05-03T00:05:50;97597.69;;;10.58;100.00
6514;BME280;3290;47.716;9.070;2023-05-03T00:08:16;97597.22;;;10.35;100.00
6514;BME280;3290;47.716;9.070;2023-05-03T00:10:41;97601.91;;;10.52;100.00
6514;BME280;3290;47.716;9.070;2023-05-03T00:13:07;97599.50;;;10.57;100.00
6514;BME280;3290;47.716;9.070;2023-05-03T00:15:32;97602.50;;;10.48;100.00
6514;BME280;3290;47.716;9.070;2023-05-03T00:17:57;97595.41;;;10.29;100.00
6514;BME280;3290;47.716;9.070;2023-05-03T00:20:23;97604.63;;;10.25;100.00
6514;BME280;3290;47.716;9.070;2023-05-03T00:22:49;97599.16;;;10.14;100.00
6514;BME280;3290;47.716;9.070;2023-05-03T00:25:14;97596.91;;;10.04;100.00
6514;BME280;3290;47.716;9.070;2023-05-03T00:27:40;97608.13;;;9.98;100.00
6514;BME280;3290;47.716;9.070;2023-05-03T00:30:06;97603.81;;;10.25;100.00
6514;BME280;3290;47.716;9.070;2023-05-03T00:32:32;97603.47;;;10.40;100.00
6514;BME280;3290;47.716;9.070;2023-05-03T00:34:57;97597.44;;;10.40;100.00
6514;BME280;3290;47.716;9.070;2023-05-03T00:37:23;97597.72;;;10.05;100.00
6514;BME280;3290;47.716;9.070;2023-05-03T00:39:49;97593.75;;;9.88;100.00
6514;BME280;3290;47.716;9.070;2023-05-03T00:42:14;97585.88;;;9.82;100.00
6514;BME280;3290;47.716;9.070;2023-05-03T00:44:40;97589.91;;;9.84;100.00
6514;BME280;3290;47.716;9.070;2023-05-03T00:47:06;97590.72;;;9.85;100.00
6514;BME280;3290;47.716;9.070;2023-05-03T00:49:32;97578.41;;;9.79;100.00
6514;BME280;3290;47.716;9.070;2023-05-03T00:51:58;97575.72;;;9.66;100.00
6514;BME280;3290;47.716;9.070;2023-05-03T00:54:26;97572.88;;;9.61;100.00
6514;BME280;3290;47.716;9.070;2023-05-03T00:56:52;97575.06;;;9.57;100.00
6514;BME280;3290;47.716;9.070;2023-05-03T00:59:18;97579.03;;;9.81;100.00
6514;BME280;3290;47.716;9.070;2023-05-03T01:01:49;97569.47;;;9.67;100.00
6514;BME280;3290;47.716;9.070;2023-05-03T01:04:15;97572.28;;;9.99;100.00
6514;BME280;3290;47.716;9.070;2023-05-03T01:07:07;97567.84;;;9.93;100.00
6514;BME280;3290;47.716;9.070;2023-05-03T01:13:24;97563.06;;;9.69;100.00
6514;BME280;3290;47.716;9.070;2023-05-03T01:18:27;97546.41;;;9.83;100.00
6514;BME280;3290;47.716;9.070;2023-05-03T01:20:55;97545.56;;;9.76;100.00
6514;BME280;3290;47.716;9.070;2023-05-03T01:23:35;97553.72;;;9.54;100.00
6514;BME280;3290;47.716;9.070;2023-05-03T01:26:33;97559.78;;;9.27;100.00
6514;BME280;3290;47.716;9.070;2023-05-03T01:28:58;97563.63;;;9.31;100.00
6514;BME280;3290;47.716;9.070;2023-05-03T01:31:52;97564.00;;;9.62;100.00
6514;BME280;3290;47.716;9.070;2023-05-03T01:34:28;97568.59;;;9.54;100.00
6514;BME280;3290;47.716;9.070;2023-05-03T01:36:58;97561.31;;;9.83;100.00
6514;BME280;3290;47.716;9.070;2023-05-03T01:39:43;97562.09;;;9.77;100.00
6514;BME280;3290;47.716;9.070;2023-05-03T01:42:11;97564.25;;;10.00;100.00
6514;BME280;3290;47.716;9.070;2023-05-03T01:44:37;97573.41;;;9.84;100.00
6514;BME280;3290;47.716;9.070;2023-05-03T01:47:03;97568.44;;;9.61;100.00
6514;BME280;3290;47.716;9.070;2023-05-03T01:49:29;97571.78;;;9.49;100.00
6514;BME280;3290;47.716;9.070;2023-05-03T01:51:54;97570.25;;;9.27;100.00
6514;BME280;3290;47.716;9.070;2023-05-03T01:54:19;97578.22;;;9.19;100.00
6514;BME280;3290;47.716;9.070;2023-05-03T01:56:46;97572.75;;;9.15;100.00
6514;BME280;3290;47.716;9.070;2023-05-03T01:59:11;97572.50;;;9.10;100.00
6514;BME280;3290;47.716;9.070;2023-05-03T02:01:36;97566.41;;;9.03;100.00
6514;BME280;3290;47.716;9.070;2023-05-03T02:04:02;97564.81;;;9.02;100.00
6514;BME280;3290;47.716;9.070;2023-05-03T02:06:27;97569.38;;;9.20;100.00
6514;BME280;3290;47.716;9.070;2023-05-03T02:08:53;97566.63;;;9.28;100.00
6514;BME280;3290;47.716;9.070;2023-05-03T02:11:18;97573.59;;;9.21;100.00
6514;BME280;3290;47.716;9.070;2023-05-03T02:13:44;97571.66;;;9.30;100.00
6514;BME280;3290;47.716;9.070;2023-05-03T02:16:09;97571.06;;;9.34;100.00
6514;BME280;3290;47.716;9.070;2023-05-03T02:18:35;97584.31;;;9.26;100.00
6514;BME280;3290;47.716;9.070;2023-05-03T02:21:01;97581.63;;;9.20;100.00
6514;BME280;3290;47.716;9.070;2023-05-03T02:23:26;97586.31;;;9.24;100.00
6514;BME280;3290;47.716;9.070;2023-05-03T02:25:51;97588.56;;;9.07;100.00
6514;BME280;3290;47.716;9.070;2023-05-03T02:28:17;97579.63;;;8.95;100.00
6514;BME280;3290;47.716;9.070;2023-05-03T02:30:42;97581.25;;;8.75;100.00
6514;BME280;3290;47.716;9.070;2023-05-03T02:33:08;97589.81;;;8.69;100.00
6514;BME280;3290;47.716;9.070;2023-05-03T02:35:33;97587.09;;;8.56;100.00
6514;BME280;3290;47.716;9.070;2023-05-03T02:37:58;97583.28;;;8.59;100.00
6514;BME280;3290;47.716;9.070;2023-05-03T02:40:24;97585.91;;;8.59;100.00
6514;BME280;3290;47.716;9.070;2023-05-03T02:42:50;97584.50;;;8.77;100.00
6514;BME280;3290;47.716;9.070;2023-05-03T02:45:15;97594.31;;;8.75;100.00
6514;BME280;3290;47.716;9.070;2023-05-03T02:47:41;97585.84;;;8.73;100.00
6514;BME280;3290;47.716;9.070;2023-05-03T02:50:07;97584.66;;;8.76;100.00
6514;BME280;3290;47.716;9.070;2023-05-03T02:52:32;97586.34;;;8.62;100.00
6514;BME280;3290;47.716;9.070;2023-05-03T02:54:58;97577.94;;;8.67;100.00
6514;BME280;3290;47.716;9.070;2023-05-03T02:57:23;97583.59;;;8.49;100.00
6514;BME280;3290;47.716;9.070;2023-05-03T02:59:48;97583.09;;;8.81;100.00
6514;BME280;3290;47.716;9.070;2023-05-03T03:02:14;97578.38;;;8.91;100.00
6514;BME280;3290;47.716;9.070;2023-05-03T03:04:39;97581.53;;;8.86;100.00
6514;BME280;3290;47.716;9.070;2023-05-03T03:07:04;97580.78;;;8.92;100.00
6514;BME280;3290;47.716;9.070;2023-05-03T03:09:30;97577.44;;;8.77;100.00
6514;BME280;3290;47.716;9.070;2023-05-03T03:11:55;97573.72;;;8.66;100.00
6514;BME280;3290;47.716;9.070;2023-05-03T03:14:20;97577.63;;;8.55;100.00
6514;BME280;3290;47.716;9.070;2023-05-03T03:16:46;97570.09;;;8.46;100.00
6514;BME280;3290;47.716;9.070;2023-05-03T03:19:11;97574.53;;;8.66;100.00
6514;BME280;3290;47.716;9.070;2023-05-03T03:21:36;97574.56;;;8.93;100.00
6514;BME280;3290;47.716;9.070;2023-05-03T03:24:02;97571.94;;;8.66;100.00
6514;BME280;3290;47.716;9.070;2023-05-03T03:26:28;97576.56;;;8.71;100.00
6514;BME280;3290;47.716;9.070;2023-05-03T03:28:54;97574.09;;;8.63;100.00
6514;BME280;3290;47.716;9.070;2023-05-03T03:31:19;97574.38;;;8.53;100.00
6514;BME280;3290;47.716;9.070;2023-05-03T03:33:47;97587.06;;;8.36;100.00
6514;BME280;3290;47.716;9.070;2023-05-03T03:36:13;97584.97;;;8.45;100.00
6514;BME280;3290;47.716;9.070;2023-05-03T03:38:38;97580.38;;;8.47;100.00
6514;BME280;3290;47.716;9.070;2023-05-03T03:41:05;97583.50;;;8.43;100.00
6514;BME280;3290;47.716;9.070;2023-05-03T03:43:31;97578.34;;;8.29;100.00
6514;BME280;3290;47.716;9.070;2023-05-03T03:45:56;97583.47;;;8.37;100.00
6514;BME280;3290;47.716;9.070;2023-05-03T03:48:22;97587.56;;;8.45;100.00
6514;BME280;3290;47.716;9.070;2023-05-03T03:50:47;97593.47;;;8.54;100.00
6514;BME280;3290;47.716;9.070;2023-05-03T03:53:13;97586.06;;;8.57;100.00
6514;BME280;3290;47.716;9.070;2023-05-03T03:55:38;97591.75;;;8.40;100.00
6514;BME280;3290;47.716;9.070;2023-05-03T03:58:04;97591.03;;;8.32;100.00
6514;BME280;3290;47.716;9.070;2023-05-03T04:00:30;97595.19;;;8.12;100.00
6514;BME280;3290;47.716;9.070;2023-05-03T04:02:55;97606.06;;;8.30;100.00
6514;BME280;3290;47.716;9.070;2023-05-03T04:05:20;97608.13;;;8.34;100.00
6514;BME280;3290;47.716;9.070;2023-05-03T04:07:46;97604.75;;;8.54;100.00
6514;BME280;3290;47.716;9.070;2023-05-03T04:10:11;97601.50;;;8.73;100.00
6514;BME280;3290;47.716;9.070;2023-05-03T04:12:36;97606.81;;;8.79;100.00
6514;BME280;3290;47.716;9.070;2023-05-03T04:15:03;97595.91;;;8.76;100.00
6514;BME280;3290;47.716;9.070;2023-05-03T04:17:28;97609.72;;;8.70;100.00
6514;BME280;3290;47.716;9.070;2023-05-03T04:19:54;97611.75;;;8.89;100.00
6514;BME280;3290;47.716;9.070;2023-05-03T04:22:19;97604.75;;;8.96;100.00
6514;BME280;3290;47.716;9.070;2023-05-03T04:24:45;97607.56;;;8.94;100.00
6514;BME280;3290;47.716;9.070;2023-05-03T04:27:10;97599.41;;;8.83;100.00
6514;BME280;3290;47.716;9.070;2023-05-03T04:29:38;97601.63;;;8.65;100.00
6514;BME280;3290;47.716;9.070;2023-05-03T04:32:04;97606.97;;;8.57;100.00
6514;BME280;3290;47.716;9.070;2023-05-03T04:34:32;97603.88;;;8.68;100.00
6514;BME280;3290;47.716;9.070;2023-05-03T04:36:57;97608.00;;;8.77;100.00
6514;BME280;3290;47.716;9.070;2023-05-03T04:39:24;97610.47;;;8.85;100.00
6514;BME280;3290;47.716;9.070;2023-05-03T04:41:50;97616.44;;;8.79;100.00
6514;BME280;3290;47.716;9.070;2023-05-03T04:44:15;97615.34;;;8.88;100.00
6514;BME280;3290;47.716;9.070;2023-05-03T04:46:41;97609.06;;;8.82;100.00
6514;BME280;3290;47.716;9.070;2023-05-03T04:49:07;97615.84;;;8.77;100.00
6514;BME280;3290;47.716;9.070;2023-05-03T04:51:32;97618.00;;;8.74;100.00
6514;BME280;3290;47.716;9.070;2023-05-03T04:53:58;97617.66;;;8.62;100.00
6514;BME280;3290;47.716;9.070;2023-05-03T04:56:23;97621.91;;;8.63;100.00
6514;BME280;3290;47.716;9.070;2023-05-03T04:58:52;97632.38;;;8.63;100.00
6514;BME280;3290;47.716;9.070;2023-05-03T05:01:18;97623.41;;;8.72;100.00
6514;BME280;3290;47.716;9.070;2023-05-03T05:03:43;97626.28;;;8.98;100.00
6514;BME280;3290;47.716;9.070;2023-05-03T05:06:09;97630.13;;;9.02;100.00
6514;BME280;3290;47.716;9.070;2023-05-03T05:08:36;97631.13;;;9.01;100.00
6514;BME280;3290;47.716;9.070;2023-05-03T05:11:02;97629.53;;;9.00;100.00
6514;BME280;3290;47.716;9.070;2023-05-03T05:13:30;97632.25;;;8.92;100.00
6514;BME280;3290;47.716;9.070;2023-05-03T05:15:56;97635.34;;;9.22;100.00
6514;BME280;3290;47.716;9.070;2023-05-03T05:18:21;97624.91;;;9.22;100.00
6514;BME280;3290;47.716;9.070;2023-05-03T05:20:47;97625.19;;;9.61;100.00
6514;BME280;3290;47.716;9.070;2023-05-03T05:23:12;97629.84;;;9.93;100.00
6514;BME280;3290;47.716;9.070;2023-05-03T05:25:37;97635.88;;;9.93;100.00
6514;BME280;3290;47.716;9.070;2023-05-03T05:28:03;97625.81;;;10.30;100.00
6514;BME280;3290;47.716;9.070;2023-05-03T05:30:28;97630.84;;;10.32;100.00
6514;BME280;3290;47.716;9.070;2023-05-03T05:32:54;97638.00;;;10.57;100.00
6514;BME280;3290;47.716;9.070;2023-05-03T05:35:19;97635.66;;;10.75;100.00
6514;BME280;3290;47.716;9.070;2023-05-03T05:37:44;97646.00;;;11.08;100.00
6514;BME280;3290;47.716;9.070;2023-05-03T05:40:10;97641.94;;;10.99;100.00
6514;BME280;3290;47.716;9.070;2023-05-03T05:42:36;97635.47;;;10.95;100.00
6514;BME280;3290;47.716;9.070;2023-05-03T05:45:02;97643.38;;;11.21;100.00
6514;BME280;3290;47.716;9.070;2023-05-03T05:47:27;97640.38;;;11.43;100.00
6514;BME280;3290;47.716;9.070;2023-05-03T05:49:53;97644.25;;;11.54;100.00
6514;BME280;3290;47.716;9.070;2023-05-03T05:52:18;97641.81;;;11.78;100.00
6514;BME280;3290;47.716;9.070;2023-05-03T05:54:44;97643.41;;;11.59;100.00
6514;BME280;3290;47.716;9.070;2023-05-03T05:57:09;97648.88;;;11.64;100.00
6514;BME280;3290;47.716;9.070;2023-05-03T05:59:36;97648.22;;;12.01;100.00
6514;BME280;3290;47.716;9.070;2023-05-03T06:02:02;97650.00;;;12.07;100.00
6514;BME280;3290;47.716;9.070;2023-05-03T06:04:28;97646.34;;;12.27;100.00
6514;BME280;3290;47.716;9.070;2023-05-03T06:06:53;97635.34;;;12.49;100.00
6514;BME280;3290;47.716;9.070;2023-05-03T06:09:19;97636.56;;;12.40;100.00
6514;BME280;3290;47.716;9.070;2023-05-03T06:11:44;97642.91;;;12.20;100.00
6514;BME280;3290;47.716;9.070;2023-05-03T06:14:13;97639.44;;;12.33;100.00
6514;BME280;3290;47.716;9.070;2023-05-03T06:16:39;97642.78;;;11.90;100.00
6514;BME280;3290;47.716;9.070;2023-05-03T06:19:04;97646.34;;;12.14;100.00
6514;BME280;3290;47.716;9.070;2023-05-03T06:21:30;97636.56;;;12.47;100.00
6514;BME280;3290;47.716;9.070;2023-05-03T06:23:55;97634.50;;;12.55;100.00
6514;BME280;3290;47.716;9.070;2023-05-03T06:26:21;97635.97;;;12.88;100.00
6514;BME280;3290;47.716;9.070;2023-05-03T06:28:47;97633.41;;;13.13;100.00
6514;BME280;3290;47.716;9.070;2023-05-03T06:31:14;97639.44;;;12.82;100.00
6514;BME280;3290;47.716;9.070;2023-05-03T06:33:40;97643.66;;;12.90;100.00
6514;BME280;3290;47.716;9.070;2023-05-03T06:36:05;97641.59;;;12.55;100.00
6514;BME280;3290;47.716;9.070;2023-05-03T06:38:32;97642.19;;;12.57;100.00
6514;BME280;3290;47.716;9.070;2023-05-03T06:40:58;97636.88;;;13.07;100.00
6514;BME280;3290;47.716;9.070;2023-05-03T06:43:23;97633.84;;;13.34;100.00
6514;BME280;3290;47.716;9.070;2023-05-03T06:45:50;97639.50;;;13.37;100.00
6514;BME280;3290;47.716;9.070;2023-05-03T06:48:15;97638.31;;;13.33;100.00
6514;BME280;3290;47.716;9.070;2023-05-03T06:50:41;97635.28;;;13.78;100.00
6514;BME280;3290;47.716;9.070;2023-05-03T06:53:06;97634.31;;;13.97;100.00
6514;BME280;3290;47.716;9.070;2023-05-03T06:55:31;97627.50;;;13.90;100.00
6514;BME280;3290;47.716;9.070;2023-05-03T06:58:04;97632.28;;;13.75;100.00
6514;BME280;3290;47.716;9.070;2023-05-03T07:00:34;97630.56;;;14.11;100.00
6514;BME280;3290;47.716;9.070;2023-05-03T07:02:59;97626.09;;;14.76;100.00
6514;BME280;3290;47.716;9.070;2023-05-03T07:05:24;97629.81;;;14.40;100.00
6514;BME280;3290;47.716;9.070;2023-05-03T07:07:50;97631.06;;;14.55;100.00
6514;BME280;3290;47.716;9.070;2023-05-03T07:10:16;97630.00;;;14.74;98.07
6514;BME280;3290;47.716;9.070;2023-05-03T07:12:41;97623.44;;;14.65;98.69
6514;BME280;3290;47.716;9.070;2023-05-03T07:15:07;97629.59;;;14.41;100.00
6514;BME280;3290;47.716;9.070;2023-05-03T07:17:32;97632.47;;;14.86;98.93
6514;BME280;3290;47.716;9.070;2023-05-03T07:19:57;97625.56;;;14.85;98.46
6514;BME280;3290;47.716;9.070;2023-05-03T07:22:23;97614.66;;;15.11;94.54
6514;BME280;3290;47.716;9.070;2023-05-03T07:24:52;97623.75;;;15.15;96.48
6514;BME280;3290;47.716;9.070;2023-05-03T07:27:22;97618.25;;;15.17;95.40
6514;BME280;3290;47.716;9.070;2023-05-03T07:29:48;97620.63;;;15.07;96.43
6514;BME280;3290;47.716;9.070;2023-05-03T07:32:13;97612.09;;;15.34;95.16
6514;BME280;3290;47.716;9.070;2023-05-03T07:34:38;97613.50;;;15.07;91.66
6514;BME280;3290;47.716;9.070;2023-05-03T07:37:04;97610.38;;;15.28;92.26
6514;BME280;3290;47.716;9.070;2023-05-03T07:39:29;97602.25;;;15.63;91.96
6514;BME280;3290;47.716;9.070;2023-05-03T07:41:55;97606.84;;;15.45;92.48
6514;BME280;3290;47.716;9.070;2023-05-03T07:44:20;97610.69;;;15.20;89.90
6514;BME280;3290;47.716;9.070;2023-05-03T07:46:46;97600.88;;;15.72;90.32
6514;BME280;3290;47.716;9.070;2023-05-03T07:52:20;97592.69;;;16.31;88.26
6514;BME280;3290;47.716;9.070;2023-05-03T07:54:45;97587.41;;;16.08;87.64
6514;BME280;3290;47.716;9.070;2023-05-03T07:57:14;97589.88;;;16.87;84.81
6514;BME280;3290;47.716;9.070;2023-05-03T07:59:52;97579.03;;;16.61;84.11
6514;BME280;3290;47.716;9.070;2023-05-03T08:03:11;97571.75;;;17.56;82.64
6514;BME280;3290;47.716;9.070;2023-05-03T08:05:36;97566.63;;;17.06;81.23
6514;BME280;3290;47.716;9.070;2023-05-03T08:08:01;97570.13;;;16.79;81.92
6514;BME280;3290;47.716;9.070;2023-05-03T08:10:28;97563.72;;;16.91;82.98
6514;BME280;3290;47.716;9.070;2023-05-03T08:12:54;97565.19;;;17.15;81.29
6514;BME280;3290;47.716;9.070;2023-05-03T08:15:19;97557.84;;;17.17;79.41
6514;BME280;3290;47.716;9.070;2023-05-03T08:17:45;97557.88;;;16.89;80.85
6514;BME280;3290;47.716;9.070;2023-05-03T08:20:11;97559.94;;;16.59;80.34
6514;BME280;3290;47.716;9.070;2023-05-03T08:22:38;97550.59;;;16.68;81.07
6514;BME280;3290;47.716;9.070;2023-05-03T08:25:04;97554.13;;;16.46;83.22
6514;BME280;3290;47.716;9.070;2023-05-03T08:27:30;97562.59;;;16.87;82.39
6514;BME280;3290;47.716;9.070;2023-05-03T08:29:56;97557.38;;;17.52;80.27
6514;BME280;3290;47.716;9.070;2023-05-03T08:32:21;97554.94;;;17.67;77.78
6514;BME280;3290;47.716;9.070;2023-05-03T08:34:49;97560.94;;;17.14;78.78
6514;BME280;3290;47.716;9.070;2023-05-03T08:37:14;97553.69;;;17.37;77.61
6514;BME280;3290;47.716;9.070;2023-05-03T08:39:40;97549.00;;;17.60;78.85
6514;BME280;3290;47.716;9.070;2023-05-03T08:42:07;97557.63;;;18.04;74.94
6514;BME280;3290;47.716;9.070;2023-05-03T08:44:37;97547.78;;;17.84;74.03
6514;BME280;3290;47.716;9.070;2023-05-03T08:47:06;97551.25;;;18.22;72.39
6514;BME280;3290;47.716;9.070;2023-05-03T08:49:32;97554.34;;;17.27;75.88
6514;BME280;3290;47.716;9.070;2023-05-03T08:51:59;97558.03;;;18.34;73.54
6514;BME280;3290;47.716;9.070;2023-05-03T08:54:26;97550.19;;;18.23;73.32
6514;BME280;3290;47.716;9.070;2023-05-03T08:56:51;97550.59;;;17.94;72.84
6514;BME280;3290;47.716;9.070;2023-05-03T08:59:17;97542.81;;;18.51;71.53
6514;BME280;3290;47.716;9.070;2023-05-03T09:01:43;97554.69;;;18.91;69.80
6514;BME280;3290;47.716;9.070;2023-05-03T09:04:09;97539.09;;;18.26;70.69
6514;BME280;3290;47.716;9.070;2023-05-03T09:06:35;97547.38;;;18.77;68.48
6514;BME280;3290;47.716;9.070;2023-05-03T09:09:03;97543.88;;;19.60;67.86
6514;BME280;3290;47.716;9.070;2023-05-03T09:11:32;97536.38;;;19.88;65.17
6514;BME280;3290;47.716;9.070;2023-05-03T09:14:14;97547.38;;;19.29;66.76
6514;BME280;3290;47.716;9.070;2023-05-03T09:16:41;97546.88;;;18.80;67.35
6514;BME280;3290;47.716;9.070;2023-05-03T09:19:08;97551.19;;;18.01;69.10
6514;BME280;3290;47.716;9.070;2023-05-03T09:21:36;97546.22;;;18.68;70.25
6514;BME280;3290;47.716;9.070;2023-05-03T09:24:19;97549.44;;;19.22;64.61
6514;BME280;3290;47.716;9.070;2023-05-03T09:26:46;97544.84;;;18.91;65.82
6514;BME280;3290;47.716;9.070;2023-05-03T09:29:39;97545.16;;;19.83;62.56
6514;BME280;3290;47.716;9.070;2023-05-03T09:32:04;97542.38;;;20.09;61.91
6514;BME280;3290;47.716;9.070;2023-05-03T09:34:32;97540.59;;;20.30;61.81
6514;BME280;3290;47.716;9.070;2023-05-03T09:36:58;97539.66;;;20.00;62.41
6514;BME280;3290;47.716;9.070;2023-05-03T09:39:23;97542.66;;;20.74;60.87
6514;BME280;3290;47.716;9.070;2023-05-03T09:41:48;97534.72;;;20.28;59.82
6514;BME280;3290;47.716;9.070;2023-05-03T09:44:16;97539.59;;;19.54;63.28
6514;BME280;3290;47.716;9.070;2023-05-03T09:47:03;97526.19;;;20.16;61.25
6514;BME280;3290;47.716;9.070;2023-05-03T09:49:32;97541.47;;;19.53;61.86
6514;BME280;3290;47.716;9.070;2023-05-03T09:51:59;97540.25;;;19.70;59.80
6514;BME280;3290;47.716;9.070;2023-05-03T09:54:25;97535.56;;;20.38;60.63
6514;BME280;3290;47.716;9.070;2023-05-03T09:56:53;97532.34;;;20.31;60.86
6514;BME280;3290;47.716;9.070;2023-05-03T09:59:22;97526.31;;;20.50;60.57
6514;BME280;3290;47.716;9.070;2023-05-03T10:01:47;97532.56;;;20.15;62.37
6514;BME280;3290;47.716;9.070;2023-05-03T10:04:16;97543.28;;;19.53;60.72
6514;BME280;3290;47.716;9.070;2023-05-03T10:06:44;97536.34;;;19.47;60.24
6514;BME280;3290;47.716;9.070;2023-05-03T10:09:15;97528.78;;;18.29;63.00
6514;BME280;3290;47.716;9.070;2023-05-03T10:11:50;97546.69;;;19.12;61.56
6514;BME280;3290;47.716;9.070;2023-05-03T10:14:16;97541.06;;;19.40;61.61
6514;BME280;3290;47.716;9.070;2023-05-03T10:16:44;97537.25;;;19.93;59.81
6514;BME280;3290;47.716;9.070;2023-05-03T10:19:38;97529.84;;;19.02;61.92
6514;BME280;3290;47.716;9.070;2023-05-03T10:22:09;97527.34;;;19.53;61.66
6514;BME280;3290;47.716;9.070;2023-05-03T10:30:34;97532.38;;;20.36;58.29
6514;BME280;3290;47.716;9.070;2023-05-03T10:35:38;97517.66;;;20.85;55.59
6514;BME280;3290;47.716;9.070;2023-05-03T10:40:41;97507.78;;;21.05;56.24
6514;BME280;3290;47.716;9.070;2023-05-03T10:48:25;97506.72;;;20.81;55.83
6514;BME280;3290;47.716;9.070;2023-05-03T10:50:52;97510.75;;;20.98;54.71
6514;BME280;3290;47.716;9.070;2023-05-03T10:56:02;97504.31;;;21.88;53.03
6514;BME280;3290;47.716;9.070;2023-05-03T10:58:35;97508.44;;;22.39;51.96
6514;BME280;3290;47.716;9.070;2023-05-03T11:01:04;97501.94;;;21.72;51.57
6514;BME280;3290;47.716;9.070;2023-05-03T11:03:40;97500.00;;;21.97;53.65
6514;BME280;3290;47.716;9.070;2023-05-03T11:06:07;97497.44;;;21.58;51.64
6514;BME280;3290;47.716;9.070;2023-05-03T11:08:32;97499.34;;;22.40;52.60
6514;BME280;3290;47.716;9.070;2023-05-03T11:11:02;97495.66;;;22.26;49.75
6514;BME280;3290;47.716;9.070;2023-05-03T11:13:34;97506.28;;;22.41;51.12
6514;BME280;3290;47.716;9.070;2023-05-03T11:15:59;97494.94;;;21.96;49.76
6514;BME280;3290;47.716;9.070;2023-05-03T11:18:25;97496.53;;;21.97;48.27
6514;BME280;3290;47.716;9.070;2023-05-03T11:20:54;97494.94;;;21.96;51.27
6514;BME280;3290;47.716;9.070;2023-05-03T11:23:25;97492.28;;;21.91;50.51
6514;BME280;3290;47.716;9.070;2023-05-03T11:25:51;97489.47;;;22.35;49.91
6514;BME280;3290;47.716;9.070;2023-05-03T11:28:17;97487.22;;;22.57;48.28
6514;BME280;3290;47.716;9.070;2023-05-03T11:30:42;97488.38;;;22.41;49.14
6514;BME280;3290;47.716;9.070;2023-05-03T11:33:07;97486.53;;;22.37;48.80
6514;BME280;3290;47.716;9.070;2023-05-03T11:35:34;97480.97;;;22.13;50.56
6514;BME280;3290;47.716;9.070;2023-05-03T11:37:59;97487.56;;;21.63;47.84
6514;BME280;3290;47.716;9.070;2023-05-03T11:40:25;97475.38;;;22.10;49.06
6514;BME280;3290;47.716;9.070;2023-05-03T11:42:51;97481.91;;;21.84;49.32
6514;BME280;3290;47.716;9.070;2023-05-03T11:45:20;97475.72;;;21.99;48.02
6514;BME280;3290;47.716;9.070;2023-05-03T11:47:46;97475.97;;;22.02;48.19
6514;BME280;3290;47.716;9.070;2023-05-03T11:50:11;97481.47;;;22.40;48.44
6514;BME280;3290;47.716;9.070;2023-05-03T11:52:37;97477.53;;;22.18;48.07
6514;BME280;3290;47.716;9.070;2023-05-03T11:55:03;97470.72;;;21.68;47.66
6514;BME280;3290;47.716;9.070;2023-05-03T11:57:31;97462.81;;;22.25;47.75
6514;BME280;3290;47.716;9.070;2023-05-03T12:00:12;97461.50;;;22.13;48.68
6514;BME280;3290;47.716;9.070;2023-05-03T12:02:39;97469.16;;;22.39;48.91
6514;BME280;3290;47.716;9.070;2023-05-03T12:05:05;97459.09;;;22.11;48.37
6514;BME280;3290;47.716;9.070;2023-05-03T12:07:31;97459.25;;;22.45;48.13
6514;BME280;3290;47.716;9.070;2023-05-03T12:09:56;97463.75;;;22.97;47.96
6514;BME280;3290;47.716;9.070;2023-05-03T12:12:22;97450.94;;;22.51;47.57
6514;BME280;3290;47.716;9.070;2023-05-03T12:14:59;97446.97;;;21.76;47.00
6514;BME280;3290;47.716;9.070;2023-05-03T12:17:38;97453.66;;;21.64;48.55
6514;BME280;3290;47.716;9.070;2023-05-03T12:20:18;97449.94;;;21.60;48.65
6514;BME280;3290;47.716;9.070;2023-05-03T12:22:47;97454.38;;;21.89;48.03
6514;BME280;3290;47.716;9.070;2023-05-03T12:25:13;97447.38;;;22.17;48.31
6514;BME280;3290;47.716;9.070;2023-05-03T12:27:38;97441.28;;;21.92;48.40
6514;BME280;3290;47.716;9.070;2023-05-03T12:30:04;97433.22;;;22.17;48.14
6514;BME280;3290;47.716;9.070;2023-05-03T12:32:30;97436.44;;;22.04;49.11
6514;BME280;3290;47.716;9.070;2023-05-03T12:34:55;97437.16;;;22.29;50.09
6514;BME280;3290;47.716;9.070;2023-05-03T12:37:21;97445.41;;;21.65;49.17
6514;BME280;3290;47.716;9.070;2023-05-03T12:39:46;97434.91;;;22.51;47.87
6514;BME280;3290;47.716;9.070;2023-05-03T12:42:11;97435.13;;;22.02;48.40
6514;BME280;3290;47.716;9.070;2023-05-03T12:44:40;97438.72;;;22.40;48.80
6514;BME280;3290;47.716;9.070;2023-05-03T12:47:06;97438.34;;;21.99;48.06
6514;BME280;3290;47.716;9.070;2023-05-03T12:49:32;97438.34;;;21.99;48.18
6514;BME280;3290;47.716;9.070;2023-05-03T12:51:58;97430.13;;;22.43;47.19
6514;BME280;3290;47.716;9.070;2023-05-03T12:54:25;97430.16;;;21.75;48.35
6514;BME280;3290;47.716;9.070;2023-05-03T12:56:50;97441.09;;;21.74;48.73
6514;BME280;3290;47.716;9.070;2023-05-03T12:59:16;97436.09;;;21.13;49.26
6514;BME280;3290;47.716;9.070;2023-05-03T13:01:41;97431.44;;;21.93;49.87
6514;BME280;3290;47.716;9.070;2023-05-03T13:04:07;97429.28;;;21.95;49.33
6514;BME280;3290;47.716;9.070;2023-05-03T13:06:32;97423.09;;;22.04;49.97
6514;BME280;3290;47.716;9.070;2023-05-03T13:09:00;97416.91;;;22.23;48.69
6514;BME280;3290;47.716;9.070;2023-05-03T13:11:26;97411.13;;;21.97;48.40
6514;BME280;3290;47.716;9.070;2023-05-03T13:13:51;97414.91;;;22.82;47.46
6514;BME280;3290;47.716;9.070;2023-05-03T13:16:17;97423.31;;;22.65;46.96
6514;BME280;3290;47.716;9.070;2023-05-03T13:18:43;97417.47;;;22.10;46.99
6514;BME280;3290;47.716;9.070;2023-05-03T13:21:10;97429.03;;;22.54;45.53
6514;BME280;3290;47.716;9.070;2023-05-03T13:23:36;97410.53;;;22.19;47.91
6514;BME280;3290;47.716;9.070;2023-05-03T13:26:02;97414.56;;;22.55;46.70
6514;BME280;3290;47.716;9.070;2023-05-03T13:28:27;97423.22;;;22.42;48.34
6514;BME280;3290;47.716;9.070;2023-05-03T13:30:53;97412.00;;;22.40;47.03
6514;BME280;3290;47.716;9.070;2023-05-03T13:33:19;97416.59;;;22.30;47.48
6514;BME280;3290;47.716;9.070;2023-05-03T13:35:44;97408.41;;;22.16;47.19
6514;BME280;3290;47.716;9.070;2023-05-03T13:38:10;97399.16;;;22.42;49.27
6514;BME280;3290;47.716;9.070;2023-05-03T13:40:35;97402.63;;;22.81;46.64
6514;BME280;3290;47.716;9.070;2023-05-03T13:43:00;97396.13;;;22.10;46.63
6514;BME280;3290;47.716;9.070;2023-05-03T13:45:26;97390.69;;;22.30;47.72
6514;BME280;3290;47.716;9.070;2023-05-03T13:47:51;97390.25;;;22.56;47.93